Time;durP1;ratioP1;P1;durP2;ratioP2;P2;SDS_P1;SDS_P2;PMS_P1;PMS_P2;Temp;Humidity;BMP_temperature;BMP_pressure;BME280_temperature;BME280_humidity;BME280_pressure;Samples;Min_cycle;Max_cycle;Signal;HPM_P1;HPM_P2
2023/03/29 00:04:05;;;;;;;9.27;6.28;;;;;;;;;;10602653;27;20409;-81
2023/03/29 00:09:08;;;;;;;9.57;6.28;;;;;;;;;;10592483;27;20398;-82
2023/03/29 00:14:10;;;;;;;9.85;6.35;;;;;;;;;;10606662;27;20417;-82
2023/03/29 00:19:14;;;;;;;9.60;6.07;;;;;;;;;;10598411;27;20394;-82
2023/03/29 00:24:16;;;;;;;8.63;6.25;;;;;;;;;;10588199;27;20419;-82
2023/03/29 00:29:18;;;;;;;7.73;5.57;;;;;;;;;;10570742;22;20437;-82
2023/03/29 00:34:22;;;;;;;8.80;5.80;;;;;;;;;;10539317;28;20531;-81
2023/03/29 00:39:26;;;;;;;6.95;5.03;;;;;;;;;;10549505;28;20394;-82
2023/03/29 00:44:55;;;;;;;6.63;5.35;;;;;;;;;;10565569;28;20404;-82
2023/03/29 00:50:02;;;;;;;7.82;5.40;;;;;;;;;;10553049;28;20462;-83
2023/03/29 00:55:10;;;;;;;8.17;6.47;;;;;;;;;;10552712;28;20424;-82
2023/03/29 01:00:16;;;;;;;7.57;5.20;;;;;;;;;;10566268;28;20815;-83
2023/03/29 01:05:24;;;;;;;8.48;5.43;;;;;;;;;;10538383;28;20459;-83
2023/03/29 01:10:30;;;;;;;7.97;4.70;;;;;;;;;;10553349;28;20410;-82
2023/03/29 01:15:33;;;;;;;7.80;5.18;;;;;;;;;;10558322;28;20769;-82
2023/03/29 01:20:55;;;;;;;7.30;4.93;;;;;;;;;;10540275;28;20495;-82
2023/03/29 01:26:08;;;;;;;7.15;4.90;;;;;;;;;;10533511;28;20407;-81
2023/03/29 01:31:17;;;;;;;7.55;4.95;;;;;;;;;;10560050;28;20392;-83
2023/03/29 01:36:25;;;;;;;6.80;5.10;;;;;;;;;;10532324;28;20416;-82
2023/03/29 01:41:36;;;;;;;7.95;5.43;;;;;;;;;;10556031;28;20495;-83
2023/03/29 01:46:46;;;;;;;8.10;5.33;;;;;;;;;;10536760;28;20499;-82
2023/03/29 01:51:55;;;;;;;7.68;5.18;;;;;;;;;;10527085;28;20461;-82
2023/03/29 01:56:58;;;;;;;7.95;5.45;;;;;;;;;;10553877;28;20786;-83
2023/03/29 02:02:05;;;;;;;6.50;5.20;;;;;;;;;;10557113;28;20468;-83
2023/03/29 02:07:09;;;;;;;9.00;5.05;;;;;;;;;;10558656;28;20518;-83
2023/03/29 02:12:12;;;;;;;6.57;5.07;;;;;;;;;;10547676;28;20411;-83
2023/03/29 02:17:20;;;;;;;7.43;5.87;;;;;;;;;;10542160;28;20424;-82
2023/03/29 02:22:26;;;;;;;9.23;5.00;;;;;;;;;;10544832;28;20449;-82
2023/03/29 02:27:29;;;;;;;9.03;5.47;;;;;;;;;;10559229;28;20399;-81
2023/03/29 02:32:39;;;;;;;6.30;4.93;;;;;;;;;;10530830;28;20435;-81
2023/03/29 02:37:43;;;;;;;7.28;5.03;;;;;;;;;;10546122;28;20421;-81
2023/03/29 02:42:46;;;;;;;6.43;4.97;;;;;;;;;;10531644;28;20412;-82
2023/03/29 02:47:53;;;;;;;6.23;5.03;;;;;;;;;;10534717;28;20423;-81
2023/03/29 02:52:59;;;;;;;7.30;5.10;;;;;;;;;;10547132;28;20782;-83
2023/03/29 02:58:06;;;;;;;5.75;4.85;;;;;;;;;;10541861;28;20416;-82
2023/03/29 03:03:10;;;;;;;6.10;4.70;;;;;;;;;;10535550;28;20415;-82
2023/03/29 03:08:12;;;;;;;7.20;5.00;;;;;;;;;;10549246;28;20404;-81
2023/03/29 03:13:14;;;;;;;7.30;4.53;;;;;;;;;;10561944;28;20400;-82
2023/03/29 03:18:17;;;;;;;6.25;4.90;;;;;;;;;;10543321;28;20454;-81
2023/03/29 03:23:19;;;;;;;7.25;4.50;;;;;;;;;;10549578;28;20405;-81
2023/03/29 03:28:22;;;;;;;6.32;4.57;;;;;;;;;;10570019;28;20402;-82
2023/03/29 03:33:27;;;;;;;5.40;4.20;;;;;;;;;;10542696;28;20470;-82
2023/03/29 03:38:28;;;;;;;5.25;4.20;;;;;;;;;;10557309;28;20885;-82
2023/03/29 03:43:30;;;;;;;5.25;4.00;;;;;;;;;;10572001;28;20398;-82
2023/03/29 03:48:33;;;;;;;5.60;4.50;;;;;;;;;;10549309;28;20826;-82
2023/03/29 03:53:35;;;;;;;7.57;4.40;;;;;;;;;;10557640;28;20408;-81
2023/03/29 03:58:38;;;;;;;7.20;4.65;;;;;;;;;;10571855;28;20398;-82
2023/03/29 04:03:41;;;;;;;5.93;4.53;;;;;;;;;;10545507;28;20404;-83
2023/03/29 04:08:43;;;;;;;6.40;4.93;;;;;;;;;;10558664;28;20766;-81
2023/03/29 04:13:46;;;;;;;5.75;4.55;;;;;;;;;;10569390;28;20878;-83
2023/03/29 04:18:49;;;;;;;6.15;4.25;;;;;;;;;;10568541;28;20408;-81
2023/03/29 04:23:51;;;;;;;5.13;4.07;;;;;;;;;;10555467;28;20901;-82
2023/03/29 04:28:53;;;;;;;8.73;4.73;;;;;;;;;;10541402;28;20832;-82
2023/03/29 04:33:56;;;;;;;7.22;4.65;;;;;;;;;;10544564;28;20964;-82
2023/03/29 04:39:00;;;;;;;7.68;4.80;;;;;;;;;;10558302;28;20395;-82
2023/03/29 04:44:02;;;;;;;5.78;4.35;;;;;;;;;;10567107;28;20760;-83
2023/03/29 04:49:06;;;;;;;5.95;4.70;;;;;;;;;;10545409;28;21114;-82
2023/03/29 04:54:07;;;;;;;8.87;5.20;;;;;;;;;;10559884;28;20502;-82
2023/03/29 04:59:09;;;;;;;8.30;4.80;;;;;;;;;;10544983;28;20446;-82
2023/03/29 05:04:13;;;;;;;6.43;4.57;;;;;;;;;;10548264;28;20412;-84
2023/03/29 05:09:16;;;;;;;6.97;4.60;;;;;;;;;;10569911;28;20442;-84
2023/03/29 05:14:18;;;;;;;7.40;5.38;;;;;;;;;;10561469;28;20474;-84
2023/03/29 05:19:21;;;;;;;6.50;5.20;;;;;;;;;;10563242;28;20410;-84
2023/03/29 05:24:23;;;;;;;9.27;5.30;;;;;;;;;;10565566;28;21009;-83
2023/03/29 05:29:25;;;;;;;7.40;5.43;;;;;;;;;;10553257;28;20497;-83
2023/03/29 05:34:30;;;;;;;8.30;5.53;;;;;;;;;;10554114;28;20930;-82
2023/03/29 05:39:33;;;;;;;9.18;5.80;;;;;;;;;;10554016;28;20749;-82
2023/03/29 05:44:35;;;;;;;8.30;5.43;;;;;;;;;;10558602;28;20414;-82
2023/03/29 05:49:38;;;;;;;7.97;5.85;;;;;;;;;;10549746;28;20427;-84
2023/03/29 05:54:40;;;;;;;9.40;5.43;;;;;;;;;;10541101;28;20416;-82
2023/03/29 05:59:42;;;;;;;7.90;5.13;;;;;;;;;;10534463;28;20400;-85
2023/03/29 06:04:45;;;;;;;8.33;5.50;;;;;;;;;;10546246;28;20410;-84
2023/03/29 06:09:47;;;;;;;7.70;5.20;;;;;;;;;;10558124;28;20437;-86
2023/03/29 06:14:49;;;;;;;7.95;5.15;;;;;;;;;;10537265;28;20463;-84
2023/03/29 06:19:52;;;;;;;7.53;5.38;;;;;;;;;;10547739;28;20391;-86
2023/03/29 06:24:54;;;;;;;12.50;5.40;;;;;;;;;;10531569;28;20402;-86
2023/03/29 06:29:56;;;;;;;6.17;4.77;;;;;;;;;;10542266;28;20468;-86
2023/03/29 06:34:59;;;;;;;6.45;4.65;;;;;;;;;;10547030;28;20425;-86
2023/03/29 06:40:05;;;;;;;6.83;4.70;;;;;;;;;;10563185;28;20467;-86
2023/03/29 06:45:08;;;;;;;8.10;5.30;;;;;;;;;;10534711;28;20428;-86
2023/03/29 06:50:13;;;;;;;7.45;5.07;;;;;;;;;;10547916;28;20398;-85
2023/03/29 06:55:16;;;;;;;7.50;4.47;;;;;;;;;;10562337;28;20418;-86
2023/03/29 07:00:26;;;;;;;7.43;4.53;;;;;;;;;;10546448;28;20886;-86
2023/03/29 07:05:30;;;;;;;5.37;4.60;;;;;;;;;;10557690;28;20535;-86
2023/03/29 07:10:37;;;;;;;7.50;4.65;;;;;;;;;;10539051;28;20439;-85
2023/03/29 07:15:39;;;;;;;6.93;5.00;;;;;;;;;;10548878;28;20439;-85
2023/03/29 07:20:42;;;;;;;6.07;4.67;;;;;;;;;;10558517;28;20453;-85
2023/03/29 07:25:45;;;;;;;5.05;4.10;;;;;;;;;;10572241;28;20410;-85
2023/03/29 07:30:46;;;;;;;8.35;4.57;;;;;;;;;;10551752;28;20404;-85
2023/03/29 07:35:49;;;;;;;5.55;4.32;;;;;;;;;;10559692;28;20939;-85
2023/03/29 07:40:53;;;;;;;5.55;3.95;;;;;;;;;;10573176;28;20494;-87
2023/03/29 07:45:54;;;;;;;8.80;4.20;;;;;;;;;;10544622;28;20418;-86
2023/03/29 07:50:58;;;;;;;6.03;4.10;;;;;;;;;;10538610;28;20484;-85
2023/03/29 07:55:59;;;;;;;5.50;4.30;;;;;;;;;;10543102;28;20907;-84
2023/03/29 08:01:01;;;;;;;5.68;4.28;;;;;;;;;;10545313;28;20448;-85
2023/03/29 08:06:05;;;;;;;6.27;4.13;;;;;;;;;;10559920;28;20489;-85
2023/03/29 08:11:07;;;;;;;6.95;3.90;;;;;;;;;;10567247;28;20495;-85
2023/03/29 08:16:10;;;;;;;6.05;4.32;;;;;;;;;;10546428;28;20511;-82
2023/03/29 08:21:14;;;;;;;4.85;4.00;;;;;;;;;;10559386;28;20404;-81
2023/03/29 08:26:16;;;;;;;5.35;4.20;;;;;;;;;;10564941;28;20489;-82
2023/03/29 08:31:18;;;;;;;5.40;4.10;;;;;;;;;;10546534;28;20885;-82
2023/03/29 08:36:21;;;;;;;5.82;4.30;;;;;;;;;;10560792;28;20423;-82
2023/03/29 08:41:35;;;;;;;4.70;2.90;;;;;;;;;;10535997;28;20405;-81
2023/03/29 08:46:44;;;;;;;5.05;3.10;;;;;;;;;;10534731;28;20490;-84
2023/03/29 08:51:52;;;;;;;5.15;3.33;;;;;;;;;;10551892;28;20402;-81
2023/03/29 08:57:00;;;;;;;5.22;3.60;;;;;;;;;;10557656;28;20473;-84
2023/03/29 09:02:04;;;;;;;6.80;3.60;;;;;;;;;;10549478;28;20392;-81
2023/03/29 09:07:09;;;;;;;6.07;3.45;;;;;;;;;;10562228;28;20746;-83
2023/03/29 09:12:22;;;;;;;5.33;3.00;;;;;;;;;;10554113;28;21055;-81
2023/03/29 09:17:35;;;;;;;6.57;3.83;;;;;;;;;;10533334;28;20518;-81
2023/03/29 09:22:50;;;;;;;8.73;4.03;;;;;;;;;;10551469;28;20772;-80
2023/03/29 09:27:58;;;;;;;5.75;3.20;;;;;;;;;;10550852;28;20407;-82
2023/03/29 09:33:05;;;;;;;6.47;3.80;;;;;;;;;;10551650;28;20412;-82
2023/03/29 09:38:12;;;;;;;6.70;4.05;;;;;;;;;;10565136;28;20422;-82
2023/03/29 09:43:17;;;;;;;5.27;3.80;;;;;;;;;;10542725;28;20500;-83
2023/03/29 09:48:20;;;;;;;7.45;3.85;;;;;;;;;;10551080;28;20400;-83
2023/03/29 09:53:24;;;;;;;6.65;3.53;;;;;;;;;;10565402;28;20818;-83
2023/03/29 09:58:29;;;;;;;7.03;3.47;;;;;;;;;;10542871;28;20535;-83
2023/03/29 10:03:33;;;;;;;5.27;3.27;;;;;;;;;;10552774;28;20428;-83
2023/03/29 10:08:40;;;;;;;5.35;3.17;;;;;;;;;;10560198;28;20409;-83
2023/03/29 10:13:46;;;;;;;4.93;3.77;;;;;;;;;;10542019;28;20400;-83
2023/03/29 10:18:49;;;;;;;5.00;3.60;;;;;;;;;;10552690;28;20912;-84
2023/03/29 10:23:58;;;;;;;5.60;3.33;;;;;;;;;;10530455;28;20474;-83
2023/03/29 10:29:05;;;;;;;4.30;3.73;;;;;;;;;;10560931;28;20953;-87
2023/03/29 10:34:07;;;;;;;4.90;3.60;;;;;;;;;;10550229;28;20404;-84
2023/03/29 10:39:14;;;;;;;5.93;3.83;;;;;;;;;;10546393;28;20424;-84
2023/03/29 10:44:29;;;;;;;6.47;4.40;;;;;;;;;;10541738;28;20446;-84
2023/03/29 10:49:30;;;;;;;5.93;4.25;;;;;;;;;;10530736;28;20400;-83
2023/03/29 10:54:34;;;;;;;6.50;4.55;;;;;;;;;;10556387;28;20392;-84
2023/03/29 10:59:43;;;;;;;8.25;4.50;;;;;;;;;;10542365;28;20470;-84
2023/03/29 11:04:47;;;;;;;6.65;4.20;;;;;;;;;;10557942;28;20428;-84
2023/03/29 11:10:00;;;;;;;6.28;4.70;;;;;;;;;;10530400;28;20809;-84
2023/03/29 11:15:21;;;;;;;7.47;4.43;;;;;;;;;;10558933;28;20403;-84
2023/03/29 11:20:32;;;;;;;7.22;4.75;;;;;;;;;;10557288;28;20953;-84
2023/03/29 11:25:47;;;;;;;7.55;4.80;;;;;;;;;;10531394;28;20526;-82
2023/03/29 11:30:55;;;;;;;5.88;4.38;;;;;;;;;;10532357;28;21058;-84
2023/03/29 11:36:04;;;;;;;5.80;4.40;;;;;;;;;;10549851;28;20863;-85
2023/03/29 11:41:16;;;;;;;7.35;4.63;;;;;;;;;;10556597;28;20403;-84
2023/03/29 11:46:21;;;;;;;6.33;4.90;;;;;;;;;;10547198;28;20566;-84
2023/03/29 11:51:25;;;;;;;8.02;5.28;;;;;;;;;;10558708;28;20403;-83
2023/03/29 11:56:34;;;;;;;6.25;4.97;;;;;;;;;;10558269;28;20450;-84
2023/03/29 12:01:40;;;;;;;6.65;5.50;;;;;;;;;;10562745;28;20761;-84
2023/03/29 12:06:47;;;;;;;8.35;5.13;;;;;;;;;;10561043;28;21558;-84
2023/03/29 12:11:56;;;;;;;9.00;5.47;;;;;;;;;;10562510;28;20458;-86
2023/03/29 12:17:00;;;;;;;7.47;5.95;;;;;;;;;;10562496;28;20792;-84
2023/03/29 12:22:06;;;;;;;7.88;6.03;;;;;;;;;;10565981;28;20410;-84
2023/03/29 12:27:20;;;;;;;7.78;6.20;;;;;;;;;;10567052;28;20417;-85
2023/03/29 12:32:38;;;;;;;9.50;6.15;;;;;;;;;;10563831;28;20410;-85
2023/03/29 12:37:45;;;;;;;9.23;6.28;;;;;;;;;;10564069;28;20507;-85
2023/03/29 12:42:52;;;;;;;8.25;6.55;;;;;;;;;;10559973;28;20406;-84
2023/03/29 12:47:55;;;;;;;8.57;6.13;;;;;;;;;;10563256;28;20415;-85
2023/03/29 12:53:05;;;;;;;8.45;6.60;;;;;;;;;;10558703;28;20408;-85
2023/03/29 12:58:25;;;;;;;9.13;5.88;;;;;;;;;;10548392;28;20500;-86
2023/03/29 13:03:35;;;;;;;8.32;6.47;;;;;;;;;;10553670;28;20444;-85
2023/03/29 13:08:40;;;;;;;9.85;6.70;;;;;;;;;;10537904;28;20939;-86
2023/03/29 13:13:44;;;;;;;8.85;6.95;;;;;;;;;;10548100;28;20398;-85
2023/03/29 13:18:57;;;;;;;10.65;6.57;;;;;;;;;;10550144;28;20419;-85
2023/03/29 13:24:08;;;;;;;8.53;6.57;;;;;;;;;;10535869;28;20408;-86
2023/03/29 13:29:29;;;;;;;9.52;6.82;;;;;;;;;;10547527;28;20437;-85
2023/03/29 13:34:39;;;;;;;9.68;7.35;;;;;;;;;;10543009;28;20473;-85
2023/03/29 13:39:49;;;;;;;8.38;6.40;;;;;;;;;;10537015;28;20441;-85
2023/03/29 13:44:53;;;;;;;8.93;6.97;;;;;;;;;;10555748;28;20408;-84
2023/03/29 13:49:58;;;;;;;10.82;7.00;;;;;;;;;;10552183;28;20409;-82
2023/03/29 13:55:04;;;;;;;8.67;6.60;;;;;;;;;;10545867;28;20404;-83
2023/03/29 14:00:15;;;;;;;8.30;6.75;;;;;;;;;;10545414;28;20505;-83
2023/03/29 14:05:21;;;;;;;10.90;7.53;;;;;;;;;;10553255;28;20449;-83
2023/03/29 14:10:27;;;;;;;9.48;7.05;;;;;;;;;;10552622;28;20398;-83
2023/03/29 14:15:43;;;;;;;8.55;6.93;;;;;;;;;;10555111;28;20462;-83
2023/03/29 14:20:47;;;;;;;8.83;7.23;;;;;;;;;;10560433;28;20405;-82
2023/03/29 14:25:50;;;;;;;9.52;6.97;;;;;;;;;;10559695;28;20523;-83
2023/03/29 14:30:53;;;;;;;9.80;7.65;;;;;;;;;;10558494;28;20497;-84
2023/03/29 14:35:56;;;;;;;11.02;8.18;;;;;;;;;;10559338;28;20403;-85
2023/03/29 14:40:59;;;;;;;9.13;7.10;;;;;;;;;;10554952;28;20394;-84
2023/03/29 14:46:07;;;;;;;9.77;7.20;;;;;;;;;;10562064;28;20396;-84
2023/03/29 14:51:10;;;;;;;10.60;7.20;;;;;;;;;;10543275;28;20406;-84
2023/03/29 14:56:16;;;;;;;8.67;6.67;;;;;;;;;;10557053;28;20415;-83
2023/03/29 15:01:22;;;;;;;11.33;7.50;;;;;;;;;;10556006;28;20887;-83
2023/03/29 15:06:25;;;;;;;9.05;7.00;;;;;;;;;;10540845;28;20495;-82
2023/03/29 15:11:29;;;;;;;8.73;7.07;;;;;;;;;;10539846;28;20408;-84
2023/03/29 15:16:33;;;;;;;8.68;7.30;;;;;;;;;;10542574;28;20414;-84
2023/03/29 15:21:35;;;;;;;10.50;7.13;;;;;;;;;;10547751;28;20404;-84
2023/03/29 15:26:38;;;;;;;9.80;7.10;;;;;;;;;;10565546;28;20402;-84
2023/03/29 15:31:42;;;;;;;9.50;7.13;;;;;;;;;;10565723;28;20394;-83
2023/03/29 15:36:46;;;;;;;13.87;7.07;;;;;;;;;;10555194;28;20429;-84
2023/03/29 15:41:50;;;;;;;8.90;7.13;;;;;;;;;;10562204;28;20475;-83
2023/03/29 15:46:56;;;;;;;8.68;7.03;;;;;;;;;;10560840;28;20421;-84
2023/03/29 15:51:58;;;;;;;7.60;6.60;;;;;;;;;;10545549;28;20427;-83
2023/03/29 15:57:03;;;;;;;9.27;7.13;;;;;;;;;;10547191;28;20414;-85
2023/03/29 16:02:07;;;;;;;8.27;6.53;;;;;;;;;;10563281;28;20894;-84
2023/03/29 16:07:14;;;;;;;9.93;7.15;;;;;;;;;;10550247;28;20396;-83
2023/03/29 16:12:16;;;;;;;10.27;7.40;;;;;;;;;;10548934;28;20483;-83
2023/03/29 16:17:19;;;;;;;9.32;7.18;;;;;;;;;;10562666;28;20416;-83
2023/03/29 16:22:21;;;;;;;10.38;7.40;;;;;;;;;;10546615;28;20402;-84
2023/03/29 16:27:23;;;;;;;8.43;6.65;;;;;;;;;;10549100;28;20464;-84
2023/03/29 16:32:26;;;;;;;9.55;6.55;;;;;;;;;;10562987;28;20953;-84
2023/03/29 16:37:28;;;;;;;10.80;6.77;;;;;;;;;;10557937;28;20762;-85
2023/03/29 16:42:30;;;;;;;10.53;7.37;;;;;;;;;;10565577;28;20490;-86
2023/03/29 16:47:33;;;;;;;11.70;7.57;;;;;;;;;;10564371;28;20407;-84
2023/03/29 16:52:36;;;;;;;13.55;7.15;;;;;;;;;;10560544;28;20406;-85
2023/03/29 16:57:38;;;;;;;12.43;7.28;;;;;;;;;;10564874;28;20530;-84
2023/03/29 17:02:41;;;;;;;12.77;7.95;;;;;;;;;;10560093;28;20399;-85
2023/03/29 17:07:43;;;;;;;12.55;7.82;;;;;;;;;;10536485;28;20895;-83
2023/03/29 17:12:45;;;;;;;16.52;8.93;;;;;;;;;;10546684;28;20927;-84
2023/03/29 17:17:48;;;;;;;16.13;9.38;;;;;;;;;;10552590;28;20420;-85
2023/03/29 17:22:51;;;;;;;12.98;8.38;;;;;;;;;;10538634;28;20411;-85
2023/03/29 17:27:52;;;;;;;11.70;7.60;;;;;;;;;;10545676;28;20418;-84
2023/03/29 17:32:56;;;;;;;11.70;7.80;;;;;;;;;;10548905;28;20414;-85
2023/03/29 17:37:59;;;;;;;11.03;7.73;;;;;;;;;;10560845;28;20474;-86
2023/03/29 17:43:01;;;;;;;11.73;7.85;;;;;;;;;;10567046;28;20455;-85
2023/03/29 17:48:04;;;;;;;13.85;8.98;;;;;;;;;;10555104;28;20427;-84
2023/03/29 17:53:06;;;;;;;12.10;7.68;;;;;;;;;;10537120;28;20400;-83
2023/03/29 17:58:08;;;;;;;14.23;9.60;;;;;;;;;;10549923;28;20416;-84
2023/03/29 18:03:11;;;;;;;13.25;9.27;;;;;;;;;;10553046;28;20403;-83
2023/03/29 18:08:13;;;;;;;16.43;11.73;;;;;;;;;;10558646;28;20505;-85
2023/03/29 18:13:15;;;;;;;15.33;10.07;;;;;;;;;;10548737;28;20414;-85
2023/03/29 18:18:19;;;;;;;11.73;8.10;;;;;;;;;;10541519;28;20455;-86
2023/03/29 18:23:21;;;;;;;14.00;7.47;;;;;;;;;;10541854;28;20408;-86
2023/03/29 18:28:23;;;;;;;11.90;7.35;;;;;;;;;;10543722;28;20430;-86
2023/03/29 18:33:29;;;;;;;14.48;7.43;;;;;;;;;;10546509;28;20406;-86
2023/03/29 18:38:33;;;;;;;13.98;8.00;;;;;;;;;;10543553;28;20425;-86
2023/03/29 18:43:37;;;;;;;15.20;8.80;;;;;;;;;;10549929;28;20996;-86
2023/03/29 18:48:41;;;;;;;15.05;8.45;;;;;;;;;;10531330;28;20439;-85
2023/03/29 18:53:43;;;;;;;14.52;9.20;;;;;;;;;;10533494;28;20408;-85
2023/03/29 18:58:45;;;;;;;15.15;8.82;;;;;;;;;;10545094;28;20498;-85
2023/03/29 19:03:48;;;;;;;13.52;8.90;;;;;;;;;;10532371;28;20407;-85
2023/03/29 19:08:50;;;;;;;16.13;9.88;;;;;;;;;;10549443;28;20506;-87
2023/03/29 19:13:51;;;;;;;13.23;8.93;;;;;;;;;;10549763;28;20769;-87
2023/03/29 19:18:55;;;;;;;16.00;10.38;;;;;;;;;;10556198;28;20414;-86
2023/03/29 19:23:58;;;;;;;17.43;10.37;;;;;;;;;;10552808;28;20916;-88
2023/03/29 19:29:00;;;;;;;15.50;10.38;;;;;;;;;;10558047;28;20825;-85
2023/03/29 19:34:04;;;;;;;17.23;10.80;;;;;;;;;;10557228;28;20406;-86
2023/03/29 19:39:06;;;;;;;16.53;10.83;;;;;;;;;;10560317;28;20414;-84
2023/03/29 19:44:08;;;;;;;15.45;10.88;;;;;;;;;;10551128;28;21197;-85
2023/03/29 19:49:12;;;;;;;18.50;11.70;;;;;;;;;;10555109;28;20404;-85
2023/03/29 19:54:16;;;;;;;20.30;12.27;;;;;;;;;;10552945;28;20916;-83
2023/03/29 19:59:19;;;;;;;21.10;12.90;;;;;;;;;;10553983;28;20429;-83
2023/03/29 20:04:23;;;;;;;21.02;13.63;;;;;;;;;;10550882;28;20451;-83
2023/03/29 20:09:25;;;;;;;21.98;13.45;;;;;;;;;;10557773;28;20402;-83
2023/03/29 20:14:26;;;;;;;20.63;13.50;;;;;;;;;;10552897;28;20519;-83
2023/03/29 20:19:30;;;;;;;20.10;13.15;;;;;;;;;;10556922;28;20424;-83
2023/03/29 20:24:33;;;;;;;22.52;13.27;;;;;;;;;;10543474;28;20487;-82
2023/03/29 20:29:35;;;;;;;19.17;12.90;;;;;;;;;;10542157;28;20902;-84
2023/03/29 20:34:38;;;;;;;19.23;12.93;;;;;;;;;;10545829;28;20424;-85
2023/03/29 20:39:40;;;;;;;18.73;12.77;;;;;;;;;;10549662;28;20423;-83
2023/03/29 20:44:49;;;;;;;21.95;13.25;;;;;;;;;;10553449;28;20833;-83
2023/03/29 20:49:53;;;;;;;23.73;12.60;;;;;;;;;;10554298;28;20430;-83
2023/03/29 20:54:54;;;;;;;17.77;12.03;;;;;;;;;;10559654;28;20416;-83
2023/03/29 20:59:56;;;;;;;18.05;12.13;;;;;;;;;;10549370;28;20408;-84
2023/03/29 21:05:01;;;;;;;19.88;13.02;;;;;;;;;;10560396;28;20459;-84
2023/03/29 21:10:02;;;;;;;17.47;12.67;;;;;;;;;;10568669;28;20833;-84
2023/03/29 21:15:05;;;;;;;18.15;12.63;;;;;;;;;;10561560;28;20939;-84
2023/03/29 21:20:10;;;;;;;18.30;12.30;;;;;;;;;;10562653;28;20920;-84
2023/03/29 21:25:14;;;;;;;16.33;11.55;;;;;;;;;;10568334;28;20478;-84
2023/03/29 21:30:16;;;;;;;18.00;11.82;;;;;;;;;;10515093;28;20412;-84
2023/03/29 21:35:19;;;;;;;17.23;11.50;;;;;;;;;;10518756;28;21494;-84
2023/03/29 21:40:21;;;;;;;15.20;11.07;;;;;;;;;;10526587;28;20508;-85
2023/03/29 21:45:24;;;;;;;16.95;11.38;;;;;;;;;;10508461;28;20960;-83
2023/03/29 21:50:27;;;;;;;15.53;11.13;;;;;;;;;;10509475;28;20472;-83
2023/03/29 21:55:29;;;;;;;17.67;12.53;;;;;;;;;;10510770;28;20409;-83
2023/03/29 22:00:31;;;;;;;18.67;12.48;;;;;;;;;;10504401;28;20483;-84
2023/03/29 22:05:35;;;;;;;18.20;11.30;;;;;;;;;;10502238;28;20408;-84
2023/03/29 22:10:37;;;;;;;17.73;11.60;;;;;;;;;;10517156;28;20404;-84
2023/03/29 22:15:39;;;;;;;16.40;11.03;;;;;;;;;;10518014;28;20967;-84
2023/03/29 22:20:43;;;;;;;17.80;11.98;;;;;;;;;;10503662;28;20475;-84
2023/03/29 22:25:45;;;;;;;16.08;11.27;;;;;;;;;;10512688;28;20415;-84
2023/03/29 22:30:47;;;;;;;18.30;11.80;;;;;;;;;;10548772;28;20855;-84
2023/03/29 22:35:50;;;;;;;16.70;11.60;;;;;;;;;;10544854;28;20470;-83
2023/03/29 22:40:52;;;;;;;17.23;11.40;;;;;;;;;;10529969;28;20428;-82
2023/03/29 22:45:54;;;;;;;16.85;11.77;;;;;;;;;;10533423;28;20407;-82
2023/03/29 22:50:57;;;;;;;15.37;11.37;;;;;;;;;;10531015;28;20408;-83
2023/03/29 22:55:59;;;;;;;18.30;11.23;;;;;;;;;;10555042;28;20402;-82
2023/03/29 23:01:01;;;;;;;18.43;11.60;;;;;;;;;;10552680;28;20826;-83
2023/03/29 23:06:05;;;;;;;17.13;11.40;;;;;;;;;;10546617;28;20404;-83
2023/03/29 23:11:07;;;;;;;16.88;10.82;;;;;;;;;;10530427;28;20411;-82
2023/03/29 23:16:09;;;;;;;17.50;11.57;;;;;;;;;;10534245;28;20546;-83
2023/03/29 23:21:12;;;;;;;15.90;10.57;;;;;;;;;;10546456;28;20898;-83
2023/03/29 23:26:15;;;;;;;15.38;10.30;;;;;;;;;;10560798;28;20434;-83
2023/03/29 23:31:18;;;;;;;17.92;10.68;;;;;;;;;;10529577;28;20408;-84
2023/03/29 23:36:24;;;;;;;15.70;10.93;;;;;;;;;;10544915;28;20405;-82
2023/03/29 23:41:27;;;;;;;18.27;11.13;;;;;;;;;;10553153;28;20414;-83
2023/03/29 23:46:29;;;;;;;17.25;11.07;;;;;;;;;;10546983;28;20411;-83
2023/03/29 23:51:33;;;;;;;18.37;12.03;;;;;;;;;;10552471;28;20397;-83
2023/03/29 23:56:35;;;;;;;18.95;11.77;;;;;;;;;;10534179;28;20407;-83
